< Typhoon 202213 2022 Season Typhoon 202215 >
Typhoon 202214 (NANMADOL)
General InformationTrack Information on Google MapsDetailed Wind InformationForecast History on Google MapsAccess Analytics MapList of All Images || NewsDisaster Info.JMA Disaster Info. XMLWeblogTrackbackTyphoon FrontTwiphoonTyphoon Now!Typhoon ImaginationResourceGoogle EarthGE AnimationAtom FeedGeoJSON
Detalied Best Track (Time Zone = UTC)
Year Month Day Hour Lat. Long. Pressure (hPa) Wind (kt) Class Image Chart
2022 9 12 18 22.6 138.4 998 30 2 Image Chart
2022 9 12 21 22.5 138.3 998 30 2 Image Chart
2022 9 13 00 22.0 138.3 998 30 2 Image Chart
2022 9 13 03 21.8 138.5 998 30 2 Image Chart
2022 9 13 06 22.0 138.9 998 30 2 Image Chart
2022 9 13 09 22.1 139.4 998 30 2 Image Chart
2022 9 13 12 22.2 139.6 998 30 2 Image Chart
2022 9 13 15 22.3 139.9 998 30 2 Image Chart
2022 9 13 18 22.4 140.1 996 35 3 Image Chart
2022 9 13 21 22.5 140.5 996 35 3 Image Chart
2022 9 14 00 22.5 140.6 996 35 3 Image Chart
2022 9 14 03 22.9 140.6 996 35 3 Image Chart
2022 9 14 06 23.3 140.7 994 40 3 Image Chart
2022 9 14 09 23.3 140.8 994 40 3 Image Chart
2022 9 14 12 23.3 140.5 990 45 3 Image Chart
2022 9 14 15 23.2 140.2 990 45 3 Image Chart
2022 9 14 18 23.1 139.7 985 50 4 Image Chart
2022 9 14 21 23.1 139.5 985 50 4 Image Chart
2022 9 15 00 23.3 139.2 980 55 4 Image Chart
2022 9 15 03 23.3 138.5 980 55 4 Image Chart
2022 9 15 06 23.3 137.9 975 60 4 Image Chart
2022 9 15 09 23.3 137.6 975 60 4 Image Chart
2022 9 15 12 23.4 137.3 970 65 5 Image Chart
2022 9 15 15 23.4 136.6 970 65 5 Image Chart
2022 9 15 18 23.4 136.4 965 70 5 Image Chart
2022 9 15 21 23.5 136.3 960 75 5 Image Chart
2022 9 16 00 23.7 136.0 950 85 5 Image Chart
2022 9 16 03 23.9 135.7 950 85 5 Image Chart
2022 9 16 06 24.2 135.5 950 85 5 Image Chart
2022 9 16 09 24.5 135.1 945 85 5 Image Chart
2022 9 16 12 24.9 134.7 925 95 5 Image Chart
2022 9 16 15 25.2 134.2 925 95 5 Image Chart
2022 9 16 18 25.5 133.8 910 105 5 Image Chart
2022 9 16 21 25.7 133.4 910 105 5 Image Chart
2022 9 17 00 26.0 133.1 910 105 5 Image Chart
2022 9 17 03 26.4 132.8 910 105 5 Image Chart
2022 9 17 06 26.7 132.5 910 105 5 Image Chart
2022 9 17 09 27.1 132.2 910 105 5 Image Chart
2022 9 17 12 27.5 132.0 910 105 5 Image Chart
2022 9 17 15 27.9 131.7 910 105 5 Image Chart
2022 9 17 18 28.5 131.4 920 100 5 Image Chart
2022 9 17 21 29.0 131.3 925 95 5 Image Chart
2022 9 18 00 29.7 131.0 925 95 5 Image Chart
2022 9 18 03 30.3 130.7 930 90 5 Image Chart
2022 9 18 06 30.7 130.7 930 90 5 Image Chart
2022 9 18 09 31.3 130.6 935 90 5 Image Chart
2022 9 18 12 31.9 130.5 940 85 5 Image Chart
2022 9 18 15 32.7 130.5 955 75 5 Image Chart
2022 9 18 18 33.2 130.4 960 70 5 Image Chart
2022 9 18 21 33.6 130.6 970 65 5 Image Chart
2022 9 19 00 33.9 130.8 975 60 4 Image Chart
2022 9 19 03 34.4 131.6 975 60 4 Image Chart
2022 9 19 06 35.3 132.4 975 60 4 Image Chart
2022 9 19 09 35.5 133.2 980 55 4 Image Chart
2022 9 19 12 36.1 134.6 980 55 4 Image Chart
2022 9 19 15 37.0 135.8 980 55 4 Image Chart
2022 9 19 18 37.7 138.6 985 50 4 Image Chart
2022 9 19 21 38.6 140.7 985 50 4 Image Chart
2022 9 20 00 39.0 143.0 994 40 6 Image Chart
Japan Meteorological Agency Best Track Data | Correction Date : 2022-09-20
< Typhoon 202213 2022 Season Typhoon 202215 >

Help